Time;durP1;ratioP1;P1;durP2;ratioP2;P2;SDS_P1;SDS_P2;PMS_P1;PMS_P2;Temp;Humidity;BMP_temperature;BMP_pressure;BME280_temperature;BME280_humidity;BME280_pressure;Samples;Min_cycle;Max_cycle;Signal;HPM_P1;HPM_P2
2022/12/29 00:01:17;;;;;;;7.27;6.93;;;10.60;27.50;;;;;;5098575;27;20181;-58
2022/12/29 00:03:46;;;;;;;8.20;7.80;;;10.60;27.60;;;;;;5098392;28;20423;-57
2022/12/29 00:06:11;;;;;;;8.07;7.60;;;10.60;27.60;;;;;;5088293;27;20204;-58
2022/12/29 00:08:39;;;;;;;7.23;6.93;;;10.60;27.50;;;;;;5102505;28;20423;-58
2022/12/29 00:11:17;;;;;;;7.03;6.70;;;10.60;27.60;;;;;;5102134;27;20214;-58
2022/12/29 00:16:28;;;;;;;7.30;7.10;;;10.60;27.40;;;;;;5116808;27;20446;-58
2022/12/29 00:18:54;;;;;;;7.53;7.17;;;10.70;27.40;;;;;;5102851;27;20596;-58
2022/12/29 00:35:35;;;;;;;7.47;7.13;;;10.90;27.00;;;;;;5109124;27;20410;-59
2022/12/29 00:46:18;;;;;;;7.90;7.57;;;11.00;26.80;;;;;;5107223;28;20449;-57
2022/12/29 00:51:27;;;;;;;7.50;7.20;;;11.10;26.70;;;;;;5107121;28;20234;-57
2022/12/29 00:53:53;;;;;;;7.40;7.03;;;11.10;26.60;;;;;;5088888;28;20423;-57
2022/12/29 00:56:19;;;;;;;7.77;7.40;;;11.10;26.50;;;;;;5083720;28;20504;-57
2022/12/29 00:58:44;;;;;;;7.20;6.80;;;11.10;26.50;;;;;;5099657;28;20699;-58
2022/12/29 01:01:10;;;;;;;7.70;7.30;;;11.10;26.50;;;;;;5084148;28;20169;-58
2022/12/29 01:03:37;;;;;;;7.90;7.50;;;11.10;26.40;;;;;;5095429;28;20195;-57
2022/12/29 01:06:09;;;;;;;6.77;6.57;;;11.20;26.40;;;;;;5093120;28;20208;-58
2022/12/29 01:08:35;;;;;;;7.00;6.70;;;11.20;26.40;;;;;;5099541;28;20408;-58
2022/12/29 01:11:02;;;;;;;7.17;6.87;;;11.10;26.50;;;;;;5105525;28;20479;-58
2022/12/29 01:13:28;;;;;;;7.87;7.57;;;11.10;26.60;;;;;;5098978;28;20424;-58
2022/12/29 01:15:54;;;;;;;7.00;6.77;;;11.20;26.50;;;;;;5095104;28;20528;-58
2022/12/29 01:18:21;;;;;;;6.70;6.50;;;11.20;26.40;;;;;;5095627;28;20180;-58
2022/12/29 01:20:46;;;;;;;7.93;7.53;;;11.20;26.30;;;;;;5097606;28;20510;-58
2022/12/29 01:23:12;;;;;;;7.40;7.00;;;11.30;26.30;;;;;;5106176;28;20507;-58
2022/12/29 01:25:38;;;;;;;7.00;6.80;;;11.30;26.20;;;;;;5105153;27;20209;-58
2022/12/29 01:28:04;;;;;;;7.00;6.80;;;11.30;26.10;;;;;;5105983;27;20408;-58
2022/12/29 01:30:29;;;;;;;7.80;7.50;;;11.40;26.60;;;;;;5106220;28;20174;-57
2022/12/29 01:32:55;;;;;;;6.63;6.43;;;11.50;26.40;;;;;;5104404;27;20545;-57
2022/12/29 01:35:21;;;;;;;7.43;7.13;;;11.50;25.70;;;;;;5109826;27;20188;-57
2022/12/29 01:37:46;;;;;;;7.40;7.20;;;11.50;26.00;;;;;;5099455;28;20178;-57
2022/12/29 01:40:12;;;;;;;7.30;6.30;;;11.60;26.20;;;;;;5100473;28;20185;-57
2022/12/29 01:42:38;;;;;;;6.73;6.53;;;11.60;26.20;;;;;;5108361;27;20552;-58
2022/12/29 01:45:10;;;;;;;7.33;7.03;;;11.60;26.10;;;;;;5105544;27;20258;-57
2022/12/29 01:47:48;;;;;;;6.63;6.43;;;11.60;25.70;;;;;;5106460;27;20525;-58
2022/12/29 01:50:33;;;;;;;7.27;6.90;;;11.60;25.70;;;;;;5105867;27;20430;-57
2022/12/29 01:53:13;;;;;;;6.83;6.53;;;11.60;26.10;;;;;;5104007;27;20418;-57
2022/12/29 01:55:46;;;;;;;6.80;6.60;;;11.60;26.60;;;;;;5095671;28;20521;-57
2022/12/29 01:58:14;;;;;;;7.17;6.97;;;11.70;26.50;;;;;;5090466;27;20895;-57
2022/12/29 02:00:40;;;;;;;7.30;6.90;;;11.80;26.50;;;;;;5097964;28;20446;-57
2022/12/29 02:03:07;;;;;;;7.50;7.10;;;11.80;26.70;;;;;;5101204;28;20424;-57
2022/12/29 02:05:45;;;;;;;8.03;7.47;;;11.80;27.00;;;;;;5100028;27;20240;-57
2022/12/29 02:08:12;;;;;;;6.67;6.47;;;11.90;26.50;;;;;;5099022;28;20678;-58
2022/12/29 02:10:39;;;;;;;7.03;6.83;;;11.90;26.70;;;;;;5104491;27;20438;-57
2022/12/29 02:13:04;;;;;;;7.00;6.70;;;11.90;26.50;;;;;;5102255;27;20446;-57
2022/12/29 02:16:07;;;;;;;10.43;7.20;;;11.90;26.70;;;;;;5105580;27;20480;-58
2022/12/29 02:18:54;;;;;;;7.40;7.17;;;12.00;26.60;;;;;;5105414;27;20477;-58
2022/12/29 02:21:29;;;;;;;7.03;6.83;;;11.90;26.70;;;;;;5092628;28;20934;-58
2022/12/29 02:24:28;;;;;;;7.53;7.03;;;12.00;26.70;;;;;;5096672;28;20832;-55
2022/12/29 02:27:21;;;;;;;7.50;7.20;;;12.00;26.70;;;;;;5106362;27;20433;-54
2022/12/29 02:30:01;;;;;;;7.23;6.83;;;11.90;26.80;;;;;;5106347;27;20769;-55
2022/12/29 02:32:39;;;;;;;7.83;7.53;;;11.90;27.40;;;;;;5096469;28;20424;-55
2022/12/29 02:35:20;;;;;;;7.57;7.10;;;11.90;27.60;;;;;;5109311;28;20408;-58
2022/12/29 02:37:55;;;;;;;7.67;7.17;;;11.90;27.20;;;;;;5098770;27;20531;-58
2022/12/29 02:40:33;;;;;;;9.27;8.70;;;11.90;27.20;;;;;;5104962;28;20752;-58
2022/12/29 02:43:10;;;;;;;8.10;7.60;;;11.90;27.20;;;;;;5101587;27;20403;-58
2022/12/29 02:45:43;;;;;;;7.30;7.00;;;11.90;27.30;;;;;;5101490;28;20582;-58
2022/12/29 02:48:37;;;;;;;8.03;7.43;;;11.90;27.40;;;;;;5101354;28;20408;-58
2022/12/29 02:51:23;;;;;;;8.30;7.77;;;11.80;27.60;;;;;;5109220;27;21263;-58
2022/12/29 02:56:36;;;;;;;7.33;7.03;;;11.80;27.90;;;;;;5110634;28;20414;-58
2022/12/29 02:59:02;;;;;;;7.87;7.37;;;11.80;27.50;;;;;;5092493;28;20506;-58
2022/12/29 03:02:16;;;;;;;8.50;8.10;;;11.90;27.50;;;;;;5103733;28;20178;-58
2022/12/29 03:04:57;;;;;;;8.60;8.20;;;11.90;27.50;;;;;;5097351;28;20202;-58
2022/12/29 03:07:44;;;;;;;7.70;7.50;;;11.80;27.40;;;;;;5088685;28;20485;-58
2022/12/29 03:10:40;;;;;;;7.93;7.63;;;11.80;27.30;;;;;;5099706;27;20426;-58
2022/12/29 03:16:18;;;;;;;7.83;7.53;;;11.90;27.70;;;;;;5120037;27;20398;-58
2022/12/29 03:19:13;;;;;;;7.30;7.00;;;11.90;27.80;;;;;;5104054;27;20519;-58
2022/12/29 03:24:38;;;;;;;8.67;7.87;;;11.80;28.00;;;;;;5114004;27;20485;-58
2022/12/29 03:27:08;;;;;;;8.13;7.83;;;11.70;27.90;;;;;;5096191;28;20515;-58
2022/12/29 03:29:40;;;;;;;8.03;7.73;;;11.70;28.20;;;;;;5105941;27;20433;-58
2022/12/29 03:32:08;;;;;;;8.37;7.97;;;11.60;28.60;;;;;;5100820;27;20411;-58
2022/12/29 03:34:36;;;;;;;8.00;7.80;;;11.60;28.30;;;;;;5104171;27;20783;-58
2022/12/29 03:37:11;;;;;;;7.87;7.57;;;11.50;28.40;;;;;;5101810;27;20412;-58
2022/12/29 03:39:37;;;;;;;7.90;7.60;;;11.40;28.60;;;;;;5095443;28;20460;-58
2022/12/29 03:42:09;;;;;;;7.70;7.40;;;11.30;28.90;;;;;;5101793;27;20407;-54
2022/12/29 03:44:41;;;;;;;8.40;8.10;;;11.30;28.40;;;;;;5102836;28;20426;-55
2022/12/29 03:47:07;;;;;;;7.73;7.53;;;11.30;28.60;;;;;;5097581;28;20778;-56
2022/12/29 03:49:33;;;;;;;8.23;7.93;;;11.40;28.20;;;;;;5100584;27;21036;-54
2022/12/29 03:51:59;;;;;;;8.20;7.80;;;11.40;28.10;;;;;;5102180;27;20415;-55
2022/12/29 03:54:25;;;;;;;7.03;6.83;;;11.40;27.80;;;;;;5102886;27;20789;-55
2022/12/29 03:56:51;;;;;;;7.13;6.93;;;11.50;27.60;;;;;;5083665;27;20281;-52
2022/12/29 03:59:16;;;;;;;7.37;7.13;;;11.60;27.30;;;;;;5107219;28;20418;-55
2022/12/29 04:01:42;;;;;;;7.20;6.90;;;11.70;27.20;;;;;;5098721;28;20177;-55
2022/12/29 04:04:08;;;;;;;8.00;7.70;;;11.80;26.80;;;;;;5106700;28;20170;-53
2022/12/29 04:06:35;;;;;;;8.83;8.53;;;11.90;26.80;;;;;;5098846;28;20258;-55
2022/12/29 04:09:01;;;;;;;7.70;7.50;;;12.00;27.20;;;;;;5100310;27;20182;-55
2022/12/29 04:11:26;;;;;;;8.43;7.97;;;12.00;26.50;;;;;;5118981;27;20416;-55
2022/12/29 04:13:52;;;;;;;8.30;8.00;;;12.00;26.60;;;;;;5105570;27;20417;-54
2022/12/29 04:16:18;;;;;;;7.77;7.37;;;12.00;26.70;;;;;;5095883;27;20264;-55
2022/12/29 04:18:43;;;;;;;8.70;8.30;;;12.00;26.50;;;;;;5102887;27;20191;-54
2022/12/29 04:21:09;;;;;;;9.10;8.70;;;12.00;26.60;;;;;;5100675;27;20716;-56
2022/12/29 04:23:36;;;;;;;8.63;8.33;;;12.10;26.80;;;;;;5102874;27;20185;-61
2022/12/29 04:26:02;;;;;;;8.33;7.93;;;12.10;27.00;;;;;;5099563;27;20235;-49
2022/12/29 04:28:28;;;;;;;8.03;7.73;;;12.10;26.70;;;;;;5105125;27;20418;-55
2022/12/29 04:30:54;;;;;;;8.30;8.00;;;12.10;26.90;;;;;;5101940;27;20420;-51
2022/12/29 04:33:21;;;;;;;8.60;8.30;;;12.10;27.10;;;;;;5095797;27;20410;-52
2022/12/29 04:35:47;;;;;;;9.00;8.70;;;12.10;27.10;;;;;;5100234;28;20420;-53
2022/12/29 04:38:13;;;;;;;8.13;7.83;;;12.00;27.10;;;;;;5099765;28;20408;-54
2022/12/29 04:40:40;;;;;;;8.90;8.57;;;12.10;27.50;;;;;;5095396;28;20419;-55
2022/12/29 04:43:06;;;;;;;8.30;8.10;;;12.10;27.20;;;;;;5089957;28;20798;-49
2022/12/29 04:45:32;;;;;;;9.03;8.57;;;12.20;27.50;;;;;;5099174;28;20512;-54
2022/12/29 04:47:58;;;;;;;8.67;8.37;;;12.30;27.00;;;;;;5099078;27;20412;-53
2022/12/29 04:50:24;;;;;;;9.20;8.70;;;12.30;27.10;;;;;;5100088;28;20268;-55
2022/12/29 04:52:49;;;;;;;8.13;7.83;;;12.20;27.30;;;;;;5123354;28;20211;-53
2022/12/29 04:55:15;;;;;;;8.93;8.53;;;12.20;27.30;;;;;;5103029;28;20177;-53
2022/12/29 04:57:40;;;;;;;8.30;8.00;;;12.20;27.60;;;;;;5102875;28;20597;-54
2022/12/29 05:00:08;;;;;;;9.40;9.10;;;12.30;27.70;;;;;;5100398;28;20177;-52
2022/12/29 05:02:34;;;;;;;8.97;8.67;;;12.30;27.70;;;;;;5102856;28;20234;-53
2022/12/29 05:05:00;;;;;;;8.57;8.33;;;12.30;28.20;;;;;;5102717;28;20451;-55
2022/12/29 05:07:26;;;;;;;8.13;7.93;;;12.30;28.20;;;;;;5103546;28;20782;-58
2022/12/29 05:09:51;;;;;;;9.20;8.87;;;12.30;27.90;;;;;;5100974;28;20230;-57
2022/12/29 05:12:17;;;;;;;8.10;7.80;;;12.20;28.30;;;;;;5103651;28;20180;-58
2022/12/29 05:14:43;;;;;;;9.00;8.70;;;12.20;28.20;;;;;;5119998;28;20192;-59
2022/12/29 05:17:08;;;;;;;7.97;7.77;;;12.30;28.20;;;;;;5103937;28;20245;-58
2022/12/29 05:19:34;;;;;;;9.10;8.80;;;12.30;28.30;;;;;;5101778;28;20193;-58
2022/12/29 05:21:59;;;;;;;8.53;8.23;;;12.30;28.30;;;;;;5094478;28;20197;-58
2022/12/29 05:24:25;;;;;;;8.67;8.17;;;12.20;28.10;;;;;;5103249;28;20182;-57
2022/12/29 05:26:51;;;;;;;8.10;7.90;;;12.30;28.30;;;;;;5099505;28;20201;-55
2022/12/29 05:29:16;;;;;;;8.33;8.03;;;12.30;28.20;;;;;;5103166;28;20704;-56
2022/12/29 05:31:42;;;;;;;8.10;7.80;;;12.20;28.30;;;;;;5101117;28;20185;-56
2022/12/29 05:34:11;;;;;;;8.80;8.50;;;12.20;28.40;;;;;;5095868;28;20528;-55
2022/12/29 05:36:37;;;;;;;7.90;7.60;;;12.20;28.50;;;;;;5104921;28;20310;-54
2022/12/29 05:39:03;;;;;;;8.13;7.83;;;12.20;28.40;;;;;;5096247;28;20506;-56
2022/12/29 05:41:28;;;;;;;8.60;8.07;;;12.20;28.30;;;;;;5103878;28;20650;-55
2022/12/29 05:43:54;;;;;;;8.07;7.83;;;12.20;28.40;;;;;;5104945;28;20439;-56
2022/12/29 05:46:20;;;;;;;8.93;8.63;;;12.10;28.60;;;;;;5123308;28;20213;-55
2022/12/29 05:48:45;;;;;;;8.73;8.43;;;12.20;28.40;;;;;;5103473;28;20258;-56
2022/12/29 05:51:11;;;;;;;8.33;8.07;;;12.20;28.50;;;;;;5104832;28;20170;-55
2022/12/29 05:53:37;;;;;;;8.13;7.93;;;12.20;28.60;;;;;;5106462;28;20181;-54
2022/12/29 05:56:02;;;;;;;8.83;8.53;;;12.20;28.40;;;;;;5109315;28;20599;-56
2022/12/29 05:58:28;;;;;;;8.70;8.40;;;12.10;28.50;;;;;;5101149;28;20178;-53
2022/12/29 06:00:54;;;;;;;8.50;8.20;;;12.20;28.50;;;;;;5108278;28;20421;-52
2022/12/29 06:03:19;;;;;;;8.07;7.87;;;12.20;28.40;;;;;;5100985;28;20182;-54
2022/12/29 06:05:46;;;;;;;8.63;8.33;;;12.20;28.30;;;;;;5098235;28;20391;-55
2022/12/29 06:08:12;;;;;;;7.97;7.70;;;12.10;28.30;;;;;;5105717;27;20354;-56
2022/12/29 06:10:38;;;;;;;7.73;7.53;;;12.10;28.20;;;;;;5111970;27;20411;-55
2022/12/29 06:13:05;;;;;;;7.90;7.70;;;12.20;28.20;;;;;;5105313;27;20400;-55
2022/12/29 06:15:31;;;;;;;8.67;8.37;;;12.10;28.30;;;;;;5108296;27;20181;-54
2022/12/29 06:17:57;;;;;;;7.73;7.53;;;12.10;28.10;;;;;;5105301;28;20408;-56
2022/12/29 06:20:23;;;;;;;8.30;7.90;;;12.10;28.00;;;;;;5102566;27;20423;-56
2022/12/29 06:22:49;;;;;;;7.97;7.77;;;12.10;28.20;;;;;;5100172;27;20178;-56
2022/12/29 06:25:15;;;;;;;8.87;8.57;;;12.10;28.10;;;;;;5112105;28;20292;-56
2022/12/29 06:27:40;;;;;;;7.77;7.57;;;12.10;28.50;;;;;;5123027;27;20411;-56
2022/12/29 06:30:07;;;;;;;8.30;7.90;;;12.10;28.20;;;;;;5106512;27;20414;-58
2022/12/29 06:32:32;;;;;;;7.83;7.63;;;12.20;28.10;;;;;;5099806;28;20514;-58
2022/12/29 06:34:59;;;;;;;8.17;7.97;;;12.20;27.90;;;;;;5104684;27;20502;-58
2022/12/29 06:37:24;;;;;;;8.83;8.50;;;12.20;27.80;;;;;;5105512;28;20311;-58
2022/12/29 06:39:50;;;;;;;8.13;7.80;;;12.20;27.70;;;;;;5109522;27;20446;-58
2022/12/29 06:42:16;;;;;;;8.20;7.90;;;12.20;27.80;;;;;;5107650;27;20547;-58
2022/12/29 06:44:41;;;;;;;8.23;7.93;;;12.20;27.90;;;;;;5099717;28;20193;-58
2022/12/29 06:47:07;;;;;;;8.50;8.20;;;12.20;27.60;;;;;;5105437;27;20178;-58
2022/12/29 06:49:32;;;;;;;9.40;9.07;;;12.20;27.70;;;;;;5101183;28;20182;-58
2022/12/29 06:52:00;;;;;;;7.80;7.60;;;12.20;27.70;;;;;;5105864;27;20262;-58
2022/12/29 06:54:26;;;;;;;8.27;8.07;;;12.20;27.30;;;;;;5107449;27;20180;-58
2022/12/29 06:56:51;;;;;;;7.87;7.67;;;12.20;27.10;;;;;;5108902;28;20412;-58
2022/12/29 06:59:17;;;;;;;8.70;8.40;;;12.20;27.20;;;;;;5095791;28;20791;-58
2022/12/29 07:01:43;;;;;;;8.40;8.10;;;12.10;27.30;;;;;;5103526;28;20414;-58
2022/12/29 07:04:08;;;;;;;9.50;8.70;;;12.00;27.50;;;;;;5096798;27;20169;-54
2022/12/29 07:06:34;;;;;;;7.63;7.43;;;12.00;27.20;;;;;;5103057;27;20205;-58
2022/12/29 07:09:00;;;;;;;8.33;8.00;;;12.00;27.20;;;;;;5099716;27;20572;-58
2022/12/29 07:11:25;;;;;;;9.27;8.53;;;12.00;27.30;;;;;;5098266;28;20264;-58
2022/12/29 07:13:51;;;;;;;8.60;7.93;;;11.90;27.20;;;;;;5093015;27;20640;-59
2022/12/29 07:16:17;;;;;;;7.83;7.53;;;11.90;27.10;;;;;;5093732;27;20177;-58
2022/12/29 07:18:43;;;;;;;8.07;7.67;;;11.90;27.20;;;;;;5098621;28;20638;-58
2022/12/29 07:21:09;;;;;;;8.87;8.57;;;11.90;27.20;;;;;;5106684;27;20475;-58
2022/12/29 07:23:35;;;;;;;7.70;7.50;;;11.80;27.10;;;;;;5105535;28;20547;-56
2022/12/29 07:26:07;;;;;;;9.00;8.70;;;11.90;27.20;;;;;;5098504;27;20475;-56
2022/12/29 07:28:34;;;;;;;9.13;8.83;;;11.90;26.80;;;;;;5124956;27;20178;-56
2022/12/29 07:31:00;;;;;;;8.43;8.13;;;11.90;26.80;;;;;;5097158;27;20443;-55
2022/12/29 07:33:29;;;;;;;8.43;8.13;;;12.00;27.10;;;;;;5107931;28;20416;-56
2022/12/29 07:35:55;;;;;;;8.20;7.90;;;11.90;26.70;;;;;;5110519;27;20181;-55
2022/12/29 07:38:20;;;;;;;9.10;8.80;;;11.90;26.80;;;;;;5097942;28;20499;-54
2022/12/29 07:40:46;;;;;;;9.53;9.23;;;11.90;26.90;;;;;;5108042;27;20422;-56
2022/12/29 07:43:12;;;;;;;8.97;8.50;;;12.00;27.00;;;;;;5106365;27;20268;-59
2022/12/29 07:45:37;;;;;;;8.53;8.23;;;12.00;26.90;;;;;;5106221;27;20201;-59
2022/12/29 07:48:07;;;;;;;9.57;8.97;;;11.90;27.00;;;;;;5104730;27;20646;-58
2022/12/29 07:50:33;;;;;;;8.53;8.23;;;11.90;27.30;;;;;;5106490;27;20177;-59
2022/12/29 07:52:59;;;;;;;8.80;8.50;;;11.90;27.20;;;;;;5103733;27;20457;-59
2022/12/29 07:55:24;;;;;;;9.90;9.50;;;11.90;27.30;;;;;;5100653;27;20415;-59
2022/12/29 07:57:53;;;;;;;8.83;8.53;;;11.90;27.20;;;;;;5105893;27;20272;-59
2022/12/29 08:00:20;;;;;;;9.27;8.67;;;11.90;27.10;;;;;;5107138;27;20256;-59
2022/12/29 08:02:45;;;;;;;9.33;8.90;;;12.00;27.10;;;;;;5121972;27;20423;-57
2022/12/29 08:05:11;;;;;;;8.40;8.10;;;12.00;26.80;;;;;;5102702;28;20467;-55
2022/12/29 08:07:37;;;;;;;8.47;8.17;;;12.00;27.10;;;;;;5103161;27;20177;-56
2022/12/29 08:10:02;;;;;;;8.83;8.50;;;12.10;27.40;;;;;;5104973;27;20268;-52
2022/12/29 08:12:28;;;;;;;11.27;8.77;;;12.20;27.30;;;;;;5105662;27;20230;-56
2022/12/29 08:14:54;;;;;;;7.93;7.60;;;12.40;27.20;;;;;;5104026;27;20401;-55
2022/12/29 08:17:19;;;;;;;8.43;7.93;;;12.50;27.10;;;;;;5108838;28;20220;-52
2022/12/29 08:19:45;;;;;;;9.13;8.77;;;12.50;27.10;;;;;;5102522;28;20729;-52
2022/12/29 08:22:10;;;;;;;8.67;8.30;;;12.50;27.00;;;;;;5106779;27;20177;-55
2022/12/29 08:24:36;;;;;;;8.97;8.53;;;12.60;27.00;;;;;;5120153;27;20281;-55
2022/12/29 08:27:02;;;;;;;8.70;8.40;;;12.60;26.50;;;;;;5118640;27;20260;-53
2022/12/29 08:29:27;;;;;;;9.13;8.20;;;12.50;26.30;;;;;;5103370;28;20212;-55
2022/12/29 08:31:53;;;;;;;9.50;9.10;;;12.40;26.50;;;;;;5105831;27;20176;-55
2022/12/29 08:34:18;;;;;;;8.40;8.00;;;12.40;26.60;;;;;;5105304;27;20174;-56
2022/12/29 08:36:44;;;;;;;9.83;8.90;;;12.30;26.70;;;;;;5109128;27;20195;-56
2022/12/29 08:39:10;;;;;;;8.07;7.77;;;12.30;26.80;;;;;;5105580;27;20656;-56
2022/12/29 08:41:35;;;;;;;8.80;8.50;;;12.30;26.80;;;;;;5105368;27;20177;-56
2022/12/29 08:44:01;;;;;;;8.90;8.60;;;12.30;26.90;;;;;;5103296;28;20190;-56
2022/12/29 08:46:27;;;;;;;7.87;7.67;;;12.30;26.80;;;;;;5099766;28;20204;-53
2022/12/29 08:48:54;;;;;;;8.83;8.53;;;12.20;27.10;;;;;;5097593;28;20511;-56
2022/12/29 08:51:19;;;;;;;8.70;8.20;;;12.20;27.20;;;;;;5095186;28;20706;-55
2022/12/29 08:53:45;;;;;;;8.17;7.67;;;12.20;27.00;;;;;;5099800;28;20411;-56
2022/12/29 08:56:11;;;;;;;8.27;7.97;;;12.20;27.20;;;;;;5112914;28;20177;-57
2022/12/29 08:58:37;;;;;;;7.83;7.53;;;12.20;27.30;;;;;;5101585;28;20605;-54
2022/12/29 09:01:03;;;;;;;8.57;8.03;;;12.20;27.00;;;;;;5097992;28;20455;-57
2022/12/29 09:03:29;;;;;;;7.90;7.60;;;12.20;27.00;;;;;;5101921;28;20918;-55
2022/12/29 09:05:55;;;;;;;8.60;8.13;;;12.30;27.10;;;;;;5096698;28;20463;-56
2022/12/29 09:08:22;;;;;;;7.63;7.37;;;12.30;27.10;;;;;;5105220;28;20173;-56
2022/12/29 09:10:48;;;;;;;8.60;7.87;;;12.30;27.00;;;;;;5107249;28;20502;-56
2022/12/29 09:13:14;;;;;;;7.57;7.27;;;12.40;26.90;;;;;;5102738;28;20486;-55
2022/12/29 09:15:40;;;;;;;7.53;7.23;;;12.40;26.90;;;;;;5104510;28;20188;-54
2022/12/29 09:18:07;;;;;;;8.30;8.00;;;12.30;26.90;;;;;;5096832;28;20427;-56
2022/12/29 09:20:33;;;;;;;9.47;8.80;;;12.30;26.90;;;;;;5102784;28;20780;-57
2022/12/29 09:22:59;;;;;;;8.03;7.73;;;12.40;27.00;;;;;;5103280;28;20416;-56
2022/12/29 09:25:25;;;;;;;7.30;7.10;;;12.40;27.10;;;;;;5107748;28;20462;-56
2022/12/29 09:27:54;;;;;;;7.00;6.80;;;12.40;27.00;;;;;;5102690;28;20174;-57
2022/12/29 09:30:22;;;;;;;7.80;7.30;;;12.40;26.90;;;;;;5102507;28;20431;-56
2022/12/29 09:32:48;;;;;;;7.87;7.53;;;12.40;26.70;;;;;;5083770;28;20417;-57
2022/12/29 09:35:15;;;;;;;7.10;6.90;;;12.50;26.90;;;;;;5099910;28;20521;-57
2022/12/29 09:37:41;;;;;;;6.70;6.50;;;12.50;26.60;;;;;;5108484;28;20418;-56
2022/12/29 09:40:15;;;;;;;7.70;7.40;;;12.50;26.70;;;;;;5094881;28;20442;-57
2022/12/29 09:43:01;;;;;;;7.57;7.37;;;12.50;26.90;;;;;;5099403;28;20866;-56
2022/12/29 09:45:40;;;;;;;8.40;7.90;;;12.50;26.70;;;;;;5094687;28;20502;-57
2022/12/29 09:48:16;;;;;;;7.10;6.83;;;12.60;26.80;;;;;;5105053;27;20412;-57
2022/12/29 09:50:47;;;;;;;7.67;7.17;;;12.60;26.70;;;;;;5112369;27;20411;-56
2022/12/29 09:53:25;;;;;;;6.73;6.43;;;12.60;26.50;;;;;;5108544;28;20415;-56
2022/12/29 09:55:55;;;;;;;8.23;7.93;;;12.70;26.80;;;;;;5094696;28;20431;-57
2022/12/29 09:58:39;;;;;;;6.53;6.33;;;12.70;26.60;;;;;;5104193;28;20468;-57
2022/12/29 10:01:07;;;;;;;7.93;7.63;;;12.80;26.50;;;;;;5113175;27;20461;-55
2022/12/29 10:03:49;;;;;;;7.60;7.30;;;12.80;26.60;;;;;;5105916;27;20411;-57
2022/12/29 10:06:32;;;;;;;8.57;7.80;;;12.80;26.60;;;;;;5100423;28;20463;-55
2022/12/29 10:09:32;;;;;;;7.60;7.40;;;12.80;26.50;;;;;;5091282;28;20455;-56
2022/12/29 10:12:28;;;;;;;7.50;7.20;;;13.00;26.30;;;;;;5096923;27;20419;-57
2022/12/29 10:15:28;;;;;;;7.80;7.50;;;13.10;26.40;;;;;;5098103;27;20483;-56
2022/12/29 10:18:12;;;;;;;7.90;7.60;;;13.20;25.80;;;;;;5107011;27;20783;-55
2022/12/29 10:21:23;;;;;;;8.10;7.60;;;13.30;25.60;;;;;;5107036;27;20526;-56
2022/12/29 10:23:51;;;;;;;8.87;8.47;;;13.30;25.70;;;;;;5106146;27;20907;-56
2022/12/29 10:26:30;;;;;;;7.50;7.27;;;13.40;25.50;;;;;;5095538;28;20774;-57
2022/12/29 10:29:02;;;;;;;7.30;7.00;;;13.40;25.50;;;;;;5101905;28;20419;-57
2022/12/29 10:31:54;;;;;;;7.70;7.30;;;13.50;25.60;;;;;;5089898;28;20421;-57
2022/12/29 10:34:47;;;;;;;8.20;8.00;;;13.50;25.60;;;;;;5077952;28;20916;-58
2022/12/29 10:37:47;;;;;;;9.90;7.80;;;13.50;25.60;;;;;;5084534;28;20412;-57
2022/12/29 10:40:43;;;;;;;7.77;7.57;;;13.50;25.60;;;;;;5088230;28;20467;-54
2022/12/29 10:43:42;;;;;;;7.93;7.63;;;13.60;25.60;;;;;;5093407;27;20779;-57
2022/12/29 10:46:18;;;;;;;7.77;7.37;;;13.50;25.60;;;;;;5093020;27;20549;-55
2022/12/29 10:48:46;;;;;;;8.43;8.13;;;13.50;25.60;;;;;;5095517;28;21207;-55
2022/12/29 10:51:27;;;;;;;6.90;6.70;;;13.60;25.60;;;;;;5099695;27;20824;-53
2022/12/29 10:54:01;;;;;;;7.83;7.53;;;13.60;25.60;;;;;;5097871;28;20903;-55
2022/12/29 10:56:40;;;;;;;7.63;7.40;;;13.60;25.70;;;;;;5103477;28;20412;-57
2022/12/29 10:59:14;;;;;;;7.50;7.30;;;13.70;25.70;;;;;;5110234;28;20423;-54
2022/12/29 11:01:51;;;;;;;8.37;7.97;;;13.70;25.70;;;;;;5094670;28;20442;-56
2022/12/29 11:04:47;;;;;;;7.20;6.90;;;13.80;25.80;;;;;;5098746;28;20518;-55
2022/12/29 11:07:18;;;;;;;7.67;7.17;;;13.90;25.60;;;;;;5096694;28;20507;-54
2022/12/29 11:09:47;;;;;;;7.57;7.27;;;13.90;25.20;;;;;;5100277;28;20440;-59
2022/12/29 11:12:30;;;;;;;7.63;7.33;;;14.00;25.30;;;;;;5095140;28;20424;-59
2022/12/29 11:15:13;;;;;;;7.40;7.20;;;14.00;25.20;;;;;;5097169;27;20898;-58
2022/12/29 11:17:49;;;;;;;8.73;7.93;;;14.00;25.30;;;;;;5117400;27;20415;-59
2022/12/29 11:20:38;;;;;;;8.80;8.30;;;14.00;25.50;;;;;;5104578;27;20921;-59
2022/12/29 11:23:20;;;;;;;7.57;7.27;;;14.00;25.90;;;;;;5095323;27;20400;-55
2022/12/29 11:25:46;;;;;;;7.50;7.00;;;14.00;25.50;;;;;;5108153;27;20909;-57
2022/12/29 11:28:15;;;;;;;6.87;6.57;;;14.00;25.50;;;;;;5099944;28;20492;-58
2022/12/29 11:30:42;;;;;;;7.03;6.83;;;14.00;25.30;;;;;;5104400;27;20489;-58
2022/12/29 11:33:09;;;;;;;6.83;6.53;;;13.90;25.80;;;;;;5103500;27;20407;-57
2022/12/29 11:35:40;;;;;;;7.13;6.73;;;13.80;25.20;;;;;;5106059;27;20419;-57
2022/12/29 11:38:23;;;;;;;7.33;7.03;;;13.80;25.60;;;;;;5097610;27;20978;-57
2022/12/29 11:40:49;;;;;;;6.97;6.77;;;13.80;25.70;;;;;;5104236;27;20422;-58
2022/12/29 11:43:35;;;;;;;7.30;7.00;;;13.80;25.80;;;;;;5105712;27;20437;-56
2022/12/29 11:46:04;;;;;;;7.47;6.97;;;13.70;27.20;;;;;;5115987;27;20496;-58
2022/12/29 11:48:40;;;;;;;8.10;7.80;;;13.50;28.30;;;;;;5106049;27;20815;-60
2022/12/29 11:51:07;;;;;;;7.53;7.23;;;13.40;30.20;;;;;;5102700;27;20430;-57
2022/12/29 11:53:45;;;;;;;7.83;7.43;;;13.30;30.00;;;;;;5105879;27;20411;-56
2022/12/29 11:56:15;;;;;;;6.30;6.10;;;13.30;31.10;;;;;;5081633;28;20506;-58
2022/12/29 11:58:41;;;;;;;7.20;6.90;;;13.20;30.70;;;;;;5094632;28;20420;-58
2022/12/29 12:01:25;;;;;;;7.90;7.60;;;13.20;32.10;;;;;;5108551;27;20419;-58
2022/12/29 12:03:56;;;;;;;7.60;7.10;;;13.10;32.90;;;;;;5102955;27;20174;-58
2022/12/29 12:06:24;;;;;;;8.23;7.63;;;13.10;31.40;;;;;;5104903;27;20466;-58
2022/12/29 12:09:02;;;;;;;7.30;7.10;;;13.10;33.40;;;;;;5099831;28;20419;-58
2022/12/29 12:11:43;;;;;;;7.13;6.93;;;13.10;34.20;;;;;;5099495;28;20426;-58
2022/12/29 12:14:28;;;;;;;7.83;7.43;;;13.10;34.60;;;;;;5101851;28;20766;-58
2022/12/29 12:17:11;;;;;;;7.70;7.50;;;13.10;34.20;;;;;;5101810;27;20412;-59
2022/12/29 12:19:40;;;;;;;8.80;8.50;;;13.10;34.20;;;;;;5098228;28;20424;-59
2022/12/29 12:22:19;;;;;;;8.40;8.10;;;13.10;33.50;;;;;;5120417;27;20422;-58
2022/12/29 12:25:20;;;;;;;7.80;7.60;;;13.10;32.90;;;;;;5099897;28;21014;-59
2022/12/29 12:27:57;;;;;;;8.53;8.10;;;13.10;33.00;;;;;;5103932;27;20505;-59
2022/12/29 12:30:28;;;;;;;7.37;7.17;;;13.10;32.60;;;;;;5105388;27;20475;-58
2022/12/29 12:33:21;;;;;;;8.23;7.80;;;13.10;31.90;;;;;;5102530;28;20837;-58
2022/12/29 12:36:04;;;;;;;7.30;7.10;;;13.10;31.40;;;;;;5105275;27;20434;-52
2022/12/29 12:38:51;;;;;;;7.30;7.10;;;13.10;31.50;;;;;;5100497;27;20510;-54
2022/12/29 12:41:53;;;;;;;8.10;7.57;;;13.10;32.00;;;;;;5104479;27;20502;-55
2022/12/29 12:44:41;;;;;;;8.23;7.93;;;13.20;32.20;;;;;;5098310;28;20498;-55
2022/12/29 12:47:19;;;;;;;6.70;6.50;;;13.20;32.50;;;;;;5102089;28;20455;-53
2022/12/29 12:49:51;;;;;;;6.77;6.47;;;13.10;32.60;;;;;;5098111;28;20540;-55
2022/12/29 12:52:54;;;;;;;7.23;6.93;;;13.00;34.10;;;;;;5097514;28;20437;-53
2022/12/29 12:55:25;;;;;;;7.90;7.60;;;13.00;34.10;;;;;;5095975;28;20416;-55
2022/12/29 12:58:10;;;;;;;8.67;8.17;;;12.90;34.60;;;;;;5102680;28;20408;-56
2022/12/29 13:00:54;;;;;;;7.67;7.20;;;12.90;34.40;;;;;;5104272;28;20412;-55
2022/12/29 13:03:49;;;;;;;7.60;7.30;;;12.90;35.70;;;;;;5104840;28;20495;-54
2022/12/29 13:06:27;;;;;;;7.73;7.43;;;12.80;35.10;;;;;;5084947;28;20466;-59
2022/12/29 13:09:11;;;;;;;8.10;7.80;;;12.90;35.20;;;;;;5103506;28;20510;-59
2022/12/29 13:12:17;;;;;;;8.10;7.80;;;13.00;34.80;;;;;;5095085;28;20951;-59
2022/12/29 13:15:32;;;;;;;8.83;8.43;;;13.00;34.80;;;;;;5084598;28;20428;-59
2022/12/29 13:18:14;;;;;;;8.50;8.10;;;13.00;35.10;;;;;;5095651;27;20415;-59
2022/12/29 13:20:49;;;;;;;8.60;8.30;;;13.00;34.60;;;;;;5104680;28;20443;-59
2022/12/29 13:23:32;;;;;;;9.10;8.70;;;13.00;34.40;;;;;;5099771;28;20408;-59
2022/12/29 13:26:20;;;;;;;7.97;7.77;;;13.10;34.20;;;;;;5106471;27;20471;-59
2022/12/29 13:29:10;;;;;;;8.70;8.40;;;13.10;34.20;;;;;;5105045;28;20447;-58
2022/12/29 13:32:23;;;;;;;8.53;8.23;;;13.10;34.20;;;;;;5104400;28;20412;-58
2022/12/29 13:35:04;;;;;;;8.03;7.73;;;13.20;34.30;;;;;;5094922;27;20418;-58
2022/12/29 13:37:32;;;;;;;8.20;7.90;;;13.10;34.20;;;;;;5108373;27;20845;-54
2022/12/29 13:40:03;;;;;;;8.60;8.10;;;13.10;34.20;;;;;;5107636;27;20447;-53
2022/12/29 13:42:30;;;;;;;8.40;8.10;;;13.00;34.20;;;;;;5126387;27;20414;-53
2022/12/29 13:45:02;;;;;;;7.93;7.73;;;13.10;34.20;;;;;;5108425;27;20428;-58
2022/12/29 13:47:41;;;;;;;7.60;7.40;;;13.10;34.20;;;;;;5105924;27;20937;-59
2022/12/29 13:50:15;;;;;;;8.53;8.23;;;13.20;34.30;;;;;;5104669;28;20974;-54